Time;durP1;ratioP1;P1;durP2;ratioP2;P2;SDS_P1;SDS_P2;PMS_P1;PMS_P2;Temp;Humidity;BMP_temperature;BMP_pressure;BME280_temperature;BME280_humidity;BME280_pressure;Samples;Min_cycle;Max_cycle;Signal;HPM_P1;HPM_P2
2022/01/05 00:01:08;;;;;;;10.15;5.40;;;2.20;99.90;;;;;;4955102;28;89428;-37
2022/01/05 00:03:34;;;;;;;13.82;5.53;;;2.20;99.90;;;;;;4955313;28;87923;-38
2022/01/05 00:05:59;;;;;;;8.45;4.70;;;2.10;99.90;;;;;;4954471;28;89132;-36
2022/01/05 00:08:25;;;;;;;11.25;4.13;;;2.20;99.90;;;;;;4955430;28;89528;-32
2022/01/05 00:10:52;;;;;;;16.92;5.75;;;2.20;99.90;;;;;;4954541;28;89443;-40
2022/01/05 00:13:18;;;;;;;14.27;5.25;;;2.20;99.90;;;;;;4954950;28;87516;-33
2022/01/05 00:15:43;;;;;;;12.02;4.53;;;2.10;99.90;;;;;;4954366;28;90817;-34
2022/01/05 00:18:09;;;;;;;6.13;4.45;;;2.10;99.90;;;;;;4954316;28;91161;-38
2022/01/05 00:20:35;;;;;;;13.20;4.70;;;2.10;99.90;;;;;;4954844;28;89239;-37
2022/01/05 00:23:00;;;;;;;8.48;4.22;;;2.10;99.90;;;;;;4954691;28;87618;-36
2022/01/05 00:25:26;;;;;;;12.95;3.83;;;2.10;99.90;;;;;;4954789;28;90044;-35
2022/01/05 00:27:52;;;;;;;8.80;3.50;;;2.00;99.90;;;;;;4954311;28;88664;-40
2022/01/05 00:30:17;;;;;;;15.60;4.80;;;2.00;99.90;;;;;;4954788;28;89502;-38
2022/01/05 00:32:43;;;;;;;15.48;5.00;;;2.00;99.90;;;;;;4954219;28;87695;-38
2022/01/05 00:35:09;;;;;;;6.15;3.38;;;2.00;99.90;;;;;;4954706;28;90118;-38
2022/01/05 00:37:35;;;;;;;12.60;5.70;;;2.10;99.90;;;;;;4954446;28;89290;-36
2022/01/05 00:40:00;;;;;;;7.45;3.17;;;2.10;99.90;;;;;;4954476;28;90112;-36
2022/01/05 00:42:26;;;;;;;11.98;3.42;;;2.10;99.90;;;;;;4954231;28;89187;-34
2022/01/05 00:44:51;;;;;;;5.90;2.92;;;2.20;99.90;;;;;;4955509;28;93183;-36
2022/01/05 00:47:17;;;;;;;7.78;2.78;;;2.30;99.90;;;;;;4957870;28;92777;-34
2022/01/05 00:49:43;;;;;;;10.13;3.38;;;2.30;99.90;;;;;;4957092;28;89520;-40
2022/01/05 00:52:08;;;;;;;9.25;3.58;;;2.30;99.90;;;;;;4958008;28;87645;-35
2022/01/05 00:54:34;;;;;;;6.47;3.60;;;2.30;99.90;;;;;;4957035;28;90324;-41
2022/01/05 00:57:00;;;;;;;7.28;3.20;;;2.30;99.90;;;;;;4957654;28;89688;-38
2022/01/05 00:59:25;;;;;;;27.80;4.15;;;2.30;99.90;;;;;;4957773;28;88079;-38
2022/01/05 01:01:51;;;;;;;7.97;2.92;;;2.30;99.90;;;;;;4957266;28;87667;-39
2022/01/05 01:04:16;;;;;;;7.53;2.83;;;2.30;99.90;;;;;;4957424;28;90249;-34
2022/01/05 01:06:42;;;;;;;8.30;2.38;;;2.30;99.90;;;;;;4957233;28;90590;-35
2022/01/05 01:09:08;;;;;;;8.48;2.45;;;2.30;99.90;;;;;;4957463;28;91221;-38
2022/01/05 01:11:34;;;;;;;8.32;3.85;;;2.20;99.90;;;;;;4957717;28;87684;-39
2022/01/05 01:14:00;;;;;;;9.18;3.20;;;2.20;99.90;;;;;;4956718;28;89729;-38
2022/01/05 01:16:26;;;;;;;6.50;2.35;;;2.20;99.90;;;;;;4957661;28;89522;-37
2022/01/05 01:18:51;;;;;;;16.52;3.45;;;2.20;99.90;;;;;;4956858;28;89202;-37
2022/01/05 01:21:17;;;;;;;5.13;2.70;;;2.20;99.90;;;;;;4957664;28;87423;-34
2022/01/05 01:23:53;;;;;;;6.35;2.50;;;2.20;99.90;;;;;;4957461;28;90161;-40
2022/01/05 01:26:19;;;;;;;7.20;3.42;;;2.10;99.90;;;;;;4957455;28;89921;-42
2022/01/05 01:28:45;;;;;;;7.50;3.50;;;2.10;99.90;;;;;;4957418;28;89431;-35
2022/01/05 01:31:11;;;;;;;7.50;3.25;;;2.10;99.90;;;;;;4956969;28;88619;-40
2022/01/05 01:33:36;;;;;;;11.63;2.83;;;2.10;99.90;;;;;;4956898;28;90332;-35
2022/01/05 01:36:02;;;;;;;6.13;3.05;;;2.10;99.90;;;;;;4956423;28;88534;-35
2022/01/05 01:38:28;;;;;;;7.70;3.00;;;2.10;99.90;;;;;;4956993;28;89686;-39
2022/01/05 01:40:54;;;;;;;8.02;2.65;;;2.10;99.90;;;;;;4956808;28;88415;-34
2022/01/05 01:43:20;;;;;;;10.20;2.83;;;2.10;99.90;;;;;;4956557;28;90366;-34
2022/01/05 01:45:45;;;;;;;9.93;3.17;;;2.10;99.90;;;;;;4957144;28;88825;-38
2022/01/05 01:48:11;;;;;;;12.32;3.03;;;2.10;99.90;;;;;;4956741;28;89323;-37
2022/01/05 01:50:37;;;;;;;5.65;2.42;;;2.20;99.90;;;;;;4957125;28;87745;-34
2022/01/05 01:53:02;;;;;;;3.67;1.92;;;2.10;99.90;;;;;;4956509;28;89031;-35
2022/01/05 01:55:28;;;;;;;10.23;2.88;;;2.10;99.90;;;;;;4955719;28;90789;-37
2022/01/05 01:57:55;;;;;;;11.52;2.85;;;2.10;99.90;;;;;;4955851;28;90817;-35
2022/01/05 02:00:21;;;;;;;10.20;3.00;;;2.10;99.90;;;;;;4957258;28;87604;-34
2022/01/05 02:02:46;;;;;;;16.80;3.63;;;2.10;99.90;;;;;;4956267;28;90224;-42
2022/01/05 02:05:12;;;;;;;8.13;2.67;;;2.10;99.90;;;;;;4956372;28;89718;-37
2022/01/05 02:07:38;;;;;;;11.00;3.97;;;2.10;99.90;;;;;;4956614;28;89498;-37
2022/01/05 02:10:06;;;;;;;9.20;2.78;;;2.20;99.90;;;;;;4956270;28;87443;-37
2022/01/05 02:12:31;;;;;;;9.33;3.00;;;2.20;99.90;;;;;;4956879;28;90884;-38
2022/01/05 02:14:57;;;;;;;9.35;2.38;;;2.20;99.90;;;;;;4956001;28;89652;-38
2022/01/05 02:17:30;;;;;;;11.23;3.03;;;2.20;99.90;;;;;;4956424;28;89488;-41
2022/01/05 02:19:56;;;;;;;3.83;2.40;;;2.10;99.90;;;;;;4955877;28;88138;-40
2022/01/05 02:22:22;;;;;;;10.68;3.00;;;2.10;99.90;;;;;;4956224;28;90344;-35
2022/01/05 02:24:48;;;;;;;4.75;2.55;;;2.10;99.90;;;;;;4955941;28;89872;-42
2022/01/05 02:27:17;;;;;;;15.95;3.20;;;2.10;99.90;;;;;;4956499;28;89064;-37
2022/01/05 02:29:44;;;;;;;;;;;2.00;99.90;;;;;;4956710;28;87902;-39
2022/01/05 02:32:10;;;;;;;10.48;2.33;;;2.00;99.90;;;;;;4957318;28;90200;-33
2022/01/05 02:34:35;;;;;;;13.48;3.10;;;2.00;99.90;;;;;;4955757;28;89557;-37
2022/01/05 02:37:01;;;;;;;14.02;4.22;;;2.00;99.90;;;;;;4956236;28;90089;-37
2022/01/05 02:39:26;;;;;;;5.50;2.25;;;2.00;99.90;;;;;;4956850;28;88684;-33
2022/01/05 02:41:52;;;;;;;5.38;2.80;;;2.00;99.90;;;;;;4955560;28;89034;-34
2022/01/05 02:44:19;;;;;;;7.82;3.03;;;2.00;99.90;;;;;;4955365;28;89344;-35
2022/01/05 02:46:44;;;;;;;10.77;3.28;;;2.00;99.90;;;;;;4955984;28;90583;-35
2022/01/05 02:49:10;;;;;;;3.72;2.22;;;2.00;99.90;;;;;;4956191;28;87436;-33
2022/01/05 02:51:35;;;;;;;7.20;2.90;;;2.00;99.90;;;;;;4956271;28;89757;-36
2022/01/05 02:54:02;;;;;;;7.78;3.10;;;2.00;99.90;;;;;;4954831;28;89655;-35
2022/01/05 02:56:27;;;;;;;14.20;3.17;;;2.00;99.90;;;;;;4956103;28;89389;-36
2022/01/05 02:58:53;;;;;;;11.48;2.65;;;2.00;99.90;;;;;;4955541;28;87760;-37
2022/01/05 03:01:19;;;;;;;5.20;2.83;;;2.10;99.90;;;;;;4955635;28;90569;-38
2022/01/05 03:03:44;;;;;;;11.35;2.90;;;2.10;99.90;;;;;;4955427;28;90226;-35
2022/01/05 03:06:10;;;;;;;7.95;3.00;;;2.10;99.90;;;;;;4955526;28;89605;-36
2022/01/05 03:08:35;;;;;;;7.13;2.55;;;2.10;99.90;;;;;;4955446;28;88127;-36
2022/01/05 03:11:01;;;;;;;11.68;3.65;;;2.10;99.90;;;;;;4955405;28;90340;-39
2022/01/05 03:13:27;;;;;;;13.40;3.38;;;2.10;99.90;;;;;;4955301;28;88744;-38
2022/01/05 03:15:53;;;;;;;10.82;3.40;;;2.10;99.90;;;;;;4955512;28;89148;-34
2022/01/05 03:18:19;;;;;;;10.35;4.07;;;2.20;99.90;;;;;;4956209;28;87563;-41
2022/01/05 03:20:46;;;;;;;8.95;4.00;;;2.20;99.90;;;;;;4955409;28;90242;-36
2022/01/05 03:23:13;;;;;;;10.40;3.83;;;2.30;99.90;;;;;;4954930;28;90201;-33
2022/01/05 03:25:39;;;;;;;11.75;4.13;;;2.20;99.90;;;;;;4955796;28;89347;-39
2022/01/05 03:28:05;;;;;;;10.90;3.38;;;2.30;99.90;;;;;;4955211;28;87855;-37
2022/01/05 03:30:31;;;;;;;9.52;3.60;;;2.30;99.90;;;;;;4955120;28;89043;-35
2022/01/05 03:35:35;;;;;;;11.68;3.95;;;2.40;99.90;;;;;;4953555;28;90789;-42
2022/01/05 03:38:02;;;;;;;8.30;4.03;;;2.40;99.90;;;;;;4955344;28;87509;-35
2022/01/05 03:40:28;;;;;;;19.95;3.92;;;2.40;99.90;;;;;;4955208;28;92187;-37
2022/01/05 03:42:53;;;;;;;10.02;2.95;;;2.40;99.90;;;;;;4954720;28;88638;-35
2022/01/05 03:45:19;;;;;;;10.07;3.58;;;2.50;99.90;;;;;;4954962;28;89757;-34
2022/01/05 03:47:45;;;;;;;15.38;4.10;;;2.50;99.90;;;;;;4955207;28;88013;-37
2022/01/05 03:50:10;;;;;;;9.95;3.95;;;2.40;99.90;;;;;;4954755;28;90002;-38
2022/01/05 03:52:36;;;;;;;6.45;2.30;;;2.50;99.90;;;;;;4955363;28;89200;-37
2022/01/05 03:55:04;;;;;;;8.05;3.47;;;2.50;99.90;;;;;;4954534;28;89600;-40
2022/01/05 03:57:29;;;;;;;8.60;4.10;;;2.50;99.90;;;;;;4955496;28;88276;-37
2022/01/05 03:59:55;;;;;;;11.57;4.00;;;2.50;99.90;;;;;;4954570;28;90204;-35
2022/01/05 04:02:21;;;;;;;16.45;3.78;;;2.50;99.90;;;;;;4955020;28;89217;-38
2022/01/05 04:04:46;;;;;;;11.90;4.75;;;2.50;99.90;;;;;;4954601;28;88452;-40
2022/01/05 04:07:13;;;;;;;15.10;4.03;;;2.50;99.90;;;;;;4954793;28;87644;-33
2022/01/05 04:09:39;;;;;;;19.13;4.13;;;2.40;99.90;;;;;;4955001;28;90289;-36
2022/01/05 04:12:04;;;;;;;15.20;4.10;;;2.40;99.90;;;;;;4954838;28;89366;-33
2022/01/05 04:14:30;;;;;;;18.25;5.10;;;2.50;99.90;;;;;;4954737;28;89433;-37
2022/01/05 04:16:56;;;;;;;16.38;4.43;;;2.40;99.90;;;;;;4954929;28;88030;-35
2022/01/05 04:19:21;;;;;;;12.48;3.88;;;2.40;99.90;;;;;;4955575;28;89092;-37
2022/01/05 04:21:47;;;;;;;16.95;4.32;;;2.40;99.90;;;;;;4957743;28;90665;-37
2022/01/05 04:24:14;;;;;;;6.85;3.28;;;2.30;99.90;;;;;;4957759;28;90588;-33
2022/01/05 04:26:39;;;;;;;9.68;4.28;;;2.30;99.90;;;;;;4940922;28;87845;-38
2022/01/05 04:29:05;;;;;;;16.08;5.13;;;2.20;99.90;;;;;;4957903;28;90428;-35
2022/01/05 04:31:30;;;;;;;11.77;4.28;;;2.20;99.90;;;;;;4957934;28;89450;-38
2022/01/05 04:33:56;;;;;;;10.68;3.67;;;2.10;99.90;;;;;;4957790;28;89695;-33
2022/01/05 04:36:21;;;;;;;16.45;4.28;;;2.10;99.90;;;;;;4958385;28;87686;-37
2022/01/05 04:38:47;;;;;;;16.60;4.38;;;2.10;99.90;;;;;;4958469;28;90244;-33
2022/01/05 04:41:12;;;;;;;11.85;4.30;;;2.10;99.90;;;;;;4957938;28;89803;-39
2022/01/05 04:43:38;;;;;;;15.00;3.75;;;2.10;99.90;;;;;;4958058;28;88216;-39
2022/01/05 04:46:03;;;;;;;13.40;4.18;;;2.10;99.90;;;;;;4957334;28;88030;-35
2022/01/05 04:48:29;;;;;;;13.38;4.85;;;2.10;99.90;;;;;;4957866;28;90133;-34
2022/01/05 04:50:55;;;;;;;17.23;3.85;;;2.20;99.90;;;;;;4957835;28;89833;-36
2022/01/05 04:53:21;;;;;;;9.27;4.10;;;2.20;99.90;;;;;;4957385;28;89704;-38
2022/01/05 04:55:46;;;;;;;12.77;3.72;;;2.20;99.90;;;;;;4957138;28;87589;-36
2022/01/05 04:58:12;;;;;;;12.65;4.38;;;2.30;99.90;;;;;;4957733;28;90497;-35
2022/01/05 05:00:38;;;;;;;14.55;3.78;;;2.30;99.90;;;;;;4957654;28;89608;-32
2022/01/05 05:03:03;;;;;;;15.43;4.15;;;2.30;99.90;;;;;;4957549;28;89507;-35
2022/01/05 05:05:29;;;;;;;12.98;3.60;;;2.40;99.90;;;;;;4957919;28;87879;-35
2022/01/05 05:07:54;;;;;;;22.77;4.40;;;2.40;99.90;;;;;;4957360;28;90463;-37
2022/01/05 05:10:20;;;;;;;11.00;3.50;;;2.40;99.90;;;;;;4956864;28;89714;-35
2022/01/05 05:12:46;;;;;;;18.08;4.30;;;2.30;99.90;;;;;;4957091;28;90551;-35
2022/01/05 05:15:11;;;;;;;8.13;3.70;;;2.40;99.90;;;;;;4957858;28;88051;-34
2022/01/05 05:17:37;;;;;;;11.60;4.63;;;2.40;99.90;;;;;;4957279;28;90661;-41
2022/01/05 05:20:04;;;;;;;11.18;3.72;;;2.40;99.90;;;;;;4956899;28;89422;-39
2022/01/05 05:22:29;;;;;;;15.88;4.55;;;2.40;99.90;;;;;;4957349;28;89513;-35
2022/01/05 05:24:55;;;;;;;12.77;4.18;;;2.40;99.90;;;;;;4957110;28;87763;-41
2022/01/05 05:27:20;;;;;;;20.95;4.65;;;2.40;99.90;;;;;;4957261;28;90144;-33
2022/01/05 05:29:46;;;;;;;11.20;3.75;;;2.40;99.90;;;;;;4957151;28;89637;-33
2022/01/05 05:32:12;;;;;;;9.60;4.07;;;2.40;99.90;;;;;;4955893;28;90057;-40
2022/01/05 05:34:37;;;;;;;20.27;3.83;;;2.40;99.90;;;;;;4956888;28;88111;-36
2022/01/05 05:37:03;;;;;;;14.27;3.85;;;2.50;99.90;;;;;;4956556;28;90204;-37
2022/01/05 05:39:29;;;;;;;23.70;4.38;;;2.50;99.90;;;;;;4957157;28;89620;-35
2022/01/05 05:41:54;;;;;;;9.57;3.42;;;2.50;99.90;;;;;;4957207;28;89926;-40
2022/01/05 05:44:20;;;;;;;20.45;4.60;;;2.50;99.90;;;;;;4956892;28;88651;-37
2022/01/05 05:46:45;;;;;;;9.07;3.72;;;2.50;99.90;;;;;;4957074;28;90251;-37
2022/01/05 05:49:11;;;;;;;14.55;3.90;;;2.50;99.90;;;;;;4956816;28;89643;-35
2022/01/05 05:51:36;;;;;;;14.07;4.75;;;2.50;99.90;;;;;;4957300;28;89968;-37
2022/01/05 05:54:03;;;;;;;9.27;4.15;;;2.50;99.90;;;;;;4956814;28;88777;-39
2022/01/05 05:56:29;;;;;;;7.57;3.88;;;2.60;99.90;;;;;;4956785;28;90042;-38
2022/01/05 05:58:55;;;;;;;12.57;3.95;;;2.60;99.90;;;;;;4956237;28;90857;-42
2022/01/05 06:01:20;;;;;;;12.30;3.85;;;2.60;99.90;;;;;;4956406;28;90614;-39
2022/01/05 06:03:46;;;;;;;15.40;4.78;;;2.60;99.90;;;;;;4956986;28;87752;-37
2022/01/05 06:06:11;;;;;;;7.55;3.72;;;2.60;99.90;;;;;;4956592;28;90212;-33
2022/01/05 06:08:39;;;;;;;12.02;3.60;;;2.70;99.90;;;;;;4956361;28;90190;-40
2022/01/05 06:11:06;;;;;;;22.83;4.40;;;2.70;99.90;;;;;;4956259;28;89653;-33
2022/01/05 06:13:32;;;;;;;9.65;4.13;;;2.80;99.90;;;;;;4957152;28;87655;-37
2022/01/05 06:15:57;;;;;;;15.10;4.35;;;2.80;99.90;;;;;;4956342;28;90741;-37
2022/01/05 06:18:23;;;;;;;13.68;4.25;;;2.90;99.90;;;;;;4956303;28;89500;-33
2022/01/05 06:20:48;;;;;;;8.32;4.20;;;3.00;99.90;;;;;;4956392;28;89546;-37
2022/01/05 06:23:14;;;;;;;8.18;3.63;;;3.10;99.90;;;;;;4955804;28;88081;-38
2022/01/05 06:25:39;;;;;;;15.57;5.53;;;3.20;99.90;;;;;;4956256;28;90585;-36
2022/01/05 06:28:10;;;;;;;16.00;3.97;;;3.30;99.90;;;;;;4956331;28;89781;-33
2022/01/05 06:30:39;;;;;;;9.93;4.40;;;3.40;99.90;;;;;;4956675;28;89556;-35
2022/01/05 06:33:05;;;;;;;5.82;3.22;;;3.60;99.90;;;;;;4956180;28;88338;-36
2022/01/05 06:35:31;;;;;;;10.10;2.70;;;3.80;99.90;;;;;;4956001;28;89090;-36
2022/01/05 06:37:58;;;;;;;14.02;5.35;;;3.80;99.90;;;;;;4956087;28;89492;-39
2022/01/05 06:40:24;;;;;;;11.80;4.00;;;3.80;99.90;;;;;;4955870;28;89328;-38
2022/01/05 06:42:50;;;;;;;13.20;4.28;;;3.90;99.90;;;;;;4955510;28;87762;-33
2022/01/05 06:45:16;;;;;;;10.57;3.30;;;3.80;99.90;;;;;;4955913;28;90404;-35
2022/01/05 06:47:41;;;;;;;12.15;3.85;;;3.90;99.90;;;;;;4955583;28;90220;-38
2022/01/05 06:50:09;;;;;;;14.00;3.58;;;3.90;99.90;;;;;;4955699;28;89525;-37
2022/01/05 06:52:34;;;;;;;14.27;3.85;;;3.80;99.90;;;;;;4956504;28;87542;-37
2022/01/05 06:55:01;;;;;;;9.25;3.50;;;3.80;99.90;;;;;;4954737;28;90168;-34
2022/01/05 06:57:26;;;;;;;11.23;4.05;;;3.80;99.90;;;;;;4955539;28;90090;-44
2022/01/05 06:59:52;;;;;;;9.95;3.03;;;3.80;99.90;;;;;;4955908;28;90058;-33
2022/01/05 07:02:17;;;;;;;27.08;5.07;;;3.90;99.90;;;;;;4955417;28;88283;-36
2022/01/05 07:04:43;;;;;;;15.68;4.43;;;3.90;99.90;;;;;;4955390;28;90485;-34
2022/01/05 07:07:09;;;;;;;9.80;3.83;;;3.90;99.90;;;;;;4955702;28;89940;-36
2022/01/05 07:09:34;;;;;;;12.63;3.40;;;3.80;99.90;;;;;;4955861;28;89503;-40
2022/01/05 07:12:00;;;;;;;9.18;4.05;;;3.90;99.90;;;;;;4955531;28;88433;-39
2022/01/05 07:14:25;;;;;;;11.57;3.22;;;3.90;99.90;;;;;;4955290;28;90294;-35
2022/01/05 07:16:54;;;;;;;10.07;3.28;;;3.90;99.90;;;;;;4955497;28;89727;-41
2022/01/05 07:19:20;;;;;;;;;;;3.90;99.90;;;;;;4955770;28;88703;-35
2022/01/05 07:21:47;;;;;;;11.93;3.63;;;3.90;99.90;;;;;;4939931;28;88261;-35
2022/01/05 07:24:16;;;;;;;8.80;3.10;;;3.90;99.90;;;;;;4955010;28;90193;-34
2022/01/05 07:26:42;;;;;;;10.95;3.85;;;3.90;99.90;;;;;;4955520;28;90065;-37
2022/01/05 07:29:08;;;;;;;10.38;3.35;;;4.00;99.90;;;;;;4955313;28;89569;-36
2022/01/05 07:31:33;;;;;;;12.75;2.83;;;4.00;99.90;;;;;;4955460;28;88097;-36
2022/01/05 07:33:59;;;;;;;11.13;2.50;;;4.00;99.90;;;;;;4954849;28;88877;-37
2022/01/05 07:36:25;;;;;;;5.00;2.42;;;4.00;99.90;;;;;;4954708;28;90700;-35
2022/01/05 07:38:50;;;;;;;11.35;2.17;;;3.90;99.90;;;;;;4955365;28;90351;-41
2022/01/05 07:41:16;;;;;;;8.45;3.08;;;3.90;99.90;;;;;;4955107;28;87672;-34
2022/01/05 07:43:42;;;;;;;7.18;2.58;;;3.90;99.90;;;;;;4954643;28;90726;-36
2022/01/05 07:46:07;;;;;;;2.33;1.40;;;3.90;99.90;;;;;;4954824;28;89913;-37
2022/01/05 07:48:33;;;;;;;9.00;2.08;;;3.90;99.90;;;;;;4955227;28;89571;-39
2022/01/05 07:50:58;;;;;;;4.40;2.33;;;3.80;99.90;;;;;;4955717;28;88714;-41
2022/01/05 07:53:24;;;;;;;6.72;2.72;;;3.80;99.90;;;;;;4954288;28;90873;-38
2022/01/05 07:55:49;;;;;;;4.40;2.50;;;3.70;99.90;;;;;;4957125;28;89488;-33
2022/01/05 07:58:15;;;;;;;3.83;2.33;;;3.70;99.90;;;;;;4957813;28;89541;-36
2022/01/05 08:00:41;;;;;;;3.80;2.05;;;3.70;99.90;;;;;;4958515;28;88609;-34
2022/01/05 08:03:06;;;;;;;3.47;2.22;;;3.60;99.90;;;;;;4958152;28;90155;-42
2022/01/05 08:05:32;;;;;;;5.38;1.95;;;3.60;99.90;;;;;;4956136;28;89671;-38
2022/01/05 08:07:57;;;;;;;6.30;2.03;;;3.60;99.90;;;;;;4887692;28;88881;-41
2022/01/05 08:10:23;;;;;;;2.42;1.50;;;3.50;99.90;;;;;;4938718;28;87622;-34
2022/01/05 08:12:49;;;;;;;9.45;3.22;;;3.50;99.90;;;;;;4938855;28;89225;-37
2022/01/05 08:15:15;;;;;;;6.38;2.10;;;3.60;99.90;;;;;;4938616;28;89118;-41
2022/01/05 08:17:42;;;;;;;5.07;1.92;;;3.50;99.90;;;;;;4949062;28;88046;-33
2022/01/05 08:20:10;;;;;;;7.18;1.83;;;3.50;99.90;;;;;;4938001;28;87717;-43
2022/01/05 08:22:40;;;;;;;9.60;3.38;;;3.50;99.90;;;;;;4938328;28;89105;-35
2022/01/05 08:25:07;;;;;;;6.97;2.30;;;3.60;99.90;;;;;;4938416;28;89727;-33
2022/01/05 08:27:32;;;;;;;9.07;2.00;;;3.50;99.90;;;;;;4938404;28;90718;-37
2022/01/05 08:30:04;;;;;;;8.77;2.28;;;3.60;99.90;;;;;;4938527;28;87670;-33
2022/01/05 08:32:29;;;;;;;4.97;2.90;;;3.50;99.90;;;;;;4938397;28;90405;-37
2022/01/05 08:34:55;;;;;;;9.23;3.17;;;3.50;99.90;;;;;;4938253;28;89987;-37
2022/01/05 08:37:20;;;;;;;5.50;3.05;;;3.40;99.90;;;;;;4937997;28;89679;-34
2022/01/05 08:39:50;;;;;;;10.25;3.03;;;3.40;99.90;;;;;;4937714;28;89186;-40
2022/01/05 08:42:16;;;;;;;3.90;2.53;;;3.40;99.90;;;;;;4937221;28;90839;-36
2022/01/05 08:44:42;;;;;;;9.68;3.38;;;3.40;99.90;;;;;;4937549;28;89560;-36
2022/01/05 08:47:08;;;;;;;5.28;2.83;;;3.50;99.90;;;;;;4938381;28;88456;-36
2022/01/05 08:49:34;;;;;;;12.07;3.28;;;3.50;99.90;;;;;;4938276;28;88433;-36
2022/01/05 08:52:00;;;;;;;11.88;3.95;;;3.70;99.90;;;;;;4938180;28;90349;-34
2022/01/05 08:54:26;;;;;;;14.45;3.63;;;3.70;99.90;;;;;;4937256;28;88592;-38
2022/01/05 08:56:54;;;;;;;9.05;2.45;;;3.80;99.90;;;;;;4937876;28;89749;-37
2022/01/05 08:59:20;;;;;;;15.82;3.25;;;3.90;99.90;;;;;;4941725;28;88416;-36
2022/01/05 09:01:45;;;;;;;16.58;3.80;;;4.00;99.90;;;;;;4938968;28;90706;-38
2022/01/05 09:04:11;;;;;;;7.50;3.15;;;4.20;99.90;;;;;;4937401;28;89231;-36
2022/01/05 09:06:37;;;;;;;8.60;2.97;;;4.20;99.90;;;;;;4938233;28;89643;-36
2022/01/05 09:09:03;;;;;;;11.27;3.25;;;4.30;99.90;;;;;;4938514;28;88779;-40
2022/01/05 09:11:28;;;;;;;9.50;1.83;;;4.40;99.90;;;;;;4937837;28;90631;-38
2022/01/05 09:13:54;;;;;;;10.82;2.85;;;4.40;99.90;;;;;;4937870;28;89431;-37
2022/01/05 09:16:20;;;;;;;7.47;2.53;;;4.50;99.90;;;;;;4937299;28;90152;-36
2022/01/05 09:18:46;;;;;;;4.70;2.22;;;4.50;99.90;;;;;;4943207;28;87700;-34
2022/01/05 09:21:12;;;;;;;9.75;2.38;;;4.60;99.90;;;;;;4942351;28;90072;-39
2022/01/05 09:23:38;;;;;;;8.63;2.78;;;4.60;99.90;;;;;;4947524;28;89847;-40
2022/01/05 09:26:03;;;;;;;5.25;2.53;;;4.70;99.90;;;;;;4942956;28;88322;-35
2022/01/05 09:28:29;;;;;;;7.90;2.17;;;4.90;99.90;;;;;;4945655;28;88349;-34
2022/01/05 09:30:55;;;;;;;8.77;2.50;;;5.00;99.90;;;;;;4937610;28;90322;-37
2022/01/05 09:33:23;;;;;;;12.07;2.58;;;5.20;99.90;;;;;;4937506;28;89939;-35
2022/01/05 09:35:50;;;;;;;7.20;2.92;;;5.30;99.90;;;;;;4937318;28;89490;-33
2022/01/05 09:38:35;;;;;;;7.45;2.60;;;5.30;99.90;;;;;;4937268;28;88018;-36
2022/01/05 09:43:55;;;;;;;5.13;2.03;;;5.20;99.90;;;;;;4937395;28;88546;-38
2022/01/05 09:46:52;;;;;;;10.95;2.95;;;5.20;99.90;;;;;;4937241;28;89454;-36
2022/01/05 09:49:23;;;;;;;4.47;1.88;;;5.20;99.90;;;;;;4937453;28;88797;-41
2022/01/05 09:51:54;;;;;;;5.70;2.35;;;5.10;99.90;;;;;;4944691;28;90353;-37
2022/01/05 09:54:21;;;;;;;10.75;3.30;;;5.10;99.90;;;;;;4936876;28;89871;-35
2022/01/05 09:56:47;;;;;;;13.70;3.05;;;5.20;99.90;;;;;;4937697;28;89682;-39
2022/01/05 09:59:15;;;;;;;6.47;2.80;;;5.40;99.90;;;;;;4937605;28;87973;-42
2022/01/05 10:01:40;;;;;;;14.38;2.90;;;5.40;99.90;;;;;;4936879;28;90336;-36
2022/01/05 10:04:06;;;;;;;12.07;3.20;;;5.50;99.90;;;;;;4930732;28;90650;-40
2022/01/05 10:06:37;;;;;;;24.70;4.13;;;5.50;99.90;;;;;;4923006;28;90368;-39
2022/01/05 10:09:04;;;;;;;7.90;2.47;;;5.50;99.90;;;;;;4923231;28;88069;-37
2022/01/05 10:11:30;;;;;;;15.52;3.95;;;5.60;99.90;;;;;;4922942;28;89986;-38
2022/01/05 10:13:55;;;;;;;11.43;3.63;;;5.70;99.90;;;;;;4922564;28;89691;-38
2022/01/05 10:16:21;;;;;;;11.70;4.25;;;5.80;99.90;;;;;;4922546;28;89552;-39
2022/01/05 10:18:47;;;;;;;10.70;3.55;;;5.80;99.90;;;;;;4922475;28;88670;-46
2022/01/05 10:21:14;;;;;;;17.17;4.30;;;5.80;99.90;;;;;;4923424;28;90254;-37
2022/01/05 10:23:47;;;;;;;17.63;3.75;;;5.90;99.90;;;;;;4927310;28;88608;-40
2022/01/05 10:26:39;;;;;;;15.93;4.15;;;5.90;99.90;;;;;;4938783;28;89550;-36
2022/01/05 10:29:13;;;;;;;19.13;4.75;;;6.00;99.90;;;;;;4941910;28;88777;-40
2022/01/05 10:31:40;;;;;;;16.50;4.78;;;6.00;99.90;;;;;;4941395;28;89984;-40
2022/01/05 10:34:18;;;;;;;15.73;5.18;;;6.20;99.90;;;;;;4942562;28;89512;-45
2022/01/05 10:36:46;;;;;;;22.83;5.60;;;6.30;99.90;;;;;;4942278;28;89720;-41
2022/01/05 10:39:12;;;;;;;;;;;6.50;99.90;;;;;;4942787;28;89697;-35
2022/01/05 10:41:38;;;;;;;26.92;6.05;;;6.50;99.90;;;;;;4942242;28;91113;-38
2022/01/05 10:44:12;;;;;;;17.08;5.15;;;6.60;99.90;;;;;;4942384;28;89435;-35
2022/01/05 10:46:44;;;;;;;10.52;4.68;;;6.50;99.90;;;;;;4941974;28;89444;-40
2022/01/05 10:49:10;;;;;;;16.35;4.65;;;6.50;99.90;;;;;;4942507;28;87527;-37
2022/01/05 10:51:36;;;;;;;19.45;4.28;;;6.60;99.90;;;;;;4940801;28;90419;-38
2022/01/05 10:57:08;;;;;;;19.65;5.13;;;6.70;99.90;;;;;;4920624;28;88780;-38
2022/01/05 10:59:39;;;;;;;16.85;4.43;;;6.80;99.90;;;;;;4922101;28;88938;-43
2022/01/05 11:02:27;;;;;;;19.98;6.75;;;6.80;99.90;;;;;;4922400;28;90369;-39
2022/01/05 11:04:58;;;;;;;15.40;5.30;;;6.80;99.90;;;;;;4921926;28;91367;-40
2022/01/05 11:07:26;;;;;;;22.88;5.65;;;6.90;99.90;;;;;;4922036;28;89688;-37
2022/01/05 11:10:05;;;;;;;17.30;4.25;;;6.90;99.90;;;;;;4921530;28;88056;-38
2022/01/05 11:12:37;;;;;;;17.70;5.47;;;7.00;99.90;;;;;;4921679;28;89874;-34
2022/01/05 11:15:31;;;;;;;19.73;4.55;;;7.00;99.90;;;;;;4921715;28;89918;-35
2022/01/05 11:18:12;;;;;;;17.63;4.45;;;7.10;99.90;;;;;;4922065;28;90375;-42
2022/01/05 11:20:42;;;;;;;21.63;4.93;;;7.20;99.90;;;;;;4921442;28;89816;-39
2022/01/05 11:23:09;;;;;;;17.17;5.78;;;7.20;99.90;;;;;;4921469;28;91332;-36
2022/01/05 11:25:36;;;;;;;23.42;6.03;;;7.30;99.90;;;;;;4921181;28;89701;-39
2022/01/05 11:28:03;;;;;;;21.27;5.32;;;7.40;99.90;;;;;;4922102;28;89478;-40
2022/01/05 11:30:29;;;;;;;13.68;4.25;;;7.40;99.90;;;;;;4921416;28;89207;-37
2022/01/05 11:32:55;;;;;;;13.43;4.07;;;7.50;99.90;;;;;;4921357;28;88968;-35
2022/01/05 11:35:20;;;;;;;11.70;4.22;;;7.50;99.90;;;;;;4921698;28;90034;-36
2022/01/05 11:37:47;;;;;;;17.15;4.80;;;7.50;99.90;;;;;;4922054;28;89492;-37
2022/01/05 11:40:13;;;;;;;18.20;4.53;;;7.50;99.90;;;;;;4921860;28;88341;-46
2022/01/05 11:42:40;;;;;;;13.75;4.15;;;7.50;99.90;;;;;;4921814;28;90344;-40
2022/01/05 11:45:08;;;;;;;23.30;4.68;;;7.50;99.90;;;;;;4920374;28;90191;-39
2022/01/05 11:47:40;;;;;;;13.30;4.15;;;7.50;99.90;;;;;;4921161;28;89350;-36
2022/01/05 11:50:15;;;;;;;19.35;4.22;;;7.50;99.90;;;;;;4922488;28;87800;-40
2022/01/05 11:53:02;;;;;;;13.00;4.40;;;7.40;99.90;;;;;;4921605;28;90245;-40
2022/01/05 11:55:29;;;;;;;22.27;4.70;;;7.50;99.90;;;;;;4920637;28;90175;-42
2022/01/05 11:58:13;;;;;;;17.25;4.80;;;7.60;99.90;;;;;;4921266;28;90110;-44
2022/01/05 12:00:39;;;;;;;15.05;3.05;;;7.70;99.90;;;;;;4920961;28;88840;-42
2022/01/05 12:03:05;;;;;;;10.38;3.67;;;7.70;99.90;;;;;;4922161;28;90215;-39
2022/01/05 12:06:04;;;;;;;14.10;3.92;;;7.80;99.90;;;;;;4920975;28;89434;-41
2022/01/05 12:08:41;;;;;;;13.15;3.17;;;7.70;99.90;;;;;;4921226;28;90227;-36
2022/01/05 12:11:29;;;;;;;13.40;3.55;;;7.70;99.90;;;;;;4920417;28;90166;-43
2022/01/05 12:13:57;;;;;;;12.15;3.47;;;7.70;99.90;;;;;;4921145;28;91057;-39
2022/01/05 12:16:23;;;;;;;9.98;2.65;;;7.70;99.90;;;;;;4920778;28;89532;-37
2022/01/05 12:19:14;;;;;;;9.48;2.67;;;7.60;99.90;;;;;;4921304;28;89549;-39
2022/01/05 12:21:48;;;;;;;11.70;4.05;;;7.60;99.90;;;;;;4920891;28;89591;-37
2022/01/05 12:24:15;;;;;;;10.20;2.95;;;7.50;99.90;;;;;;4921158;28;89877;-36
2022/01/05 12:26:41;;;;;;;10.18;4.35;;;7.60;99.90;;;;;;4920907;28;90262;-35
2022/01/05 12:29:07;;;;;;;16.73;3.17;;;7.50;99.90;;;;;;4921908;28;89557;-42
2022/01/05 12:31:52;;;;;;;11.10;3.38;;;7.60;99.90;;;;;;4920961;28;89347;-40
2022/01/05 12:34:56;;;;;;;11.48;3.65;;;7.70;99.90;;;;;;4920524;28;90195;-41
2022/01/05 12:37:45;;;;;;;11.57;3.85;;;7.90;99.90;;;;;;4920817;28;91865;-36
2022/01/05 12:40:43;;;;;;;15.45;3.58;;;8.10;99.90;;;;;;4921435;28;90687;-45
2022/01/05 12:43:08;;;;;;;13.70;4.30;;;8.10;99.90;;;;;;4924280;28;88817;-45
2022/01/05 12:45:49;;;;;;;8.65;3.38;;;8.10;99.90;;;;;;4924332;28;89851;-42
2022/01/05 12:48:35;;;;;;;8.60;3.33;;;7.90;99.90;;;;;;4924534;28;89731;-41
2022/01/05 12:51:31;;;;;;;13.73;3.53;;;7.90;99.90;;;;;;4923988;28;90095;-42
2022/01/05 12:54:02;;;;;;;9.25;2.42;;;7.90;99.90;;;;;;4924740;28;89329;-37
2022/01/05 12:56:37;;;;;;;12.25;3.75;;;7.90;99.90;;;;;;4923326;28;90116;-43
2022/01/05 12:59:05;;;;;;;12.68;3.47;;;7.80;99.90;;;;;;4923871;28;89768;-40
2022/01/05 13:01:31;;;;;;;12.85;3.70;;;7.80;99.90;;;;;;4923978;28;89550;-41
2022/01/05 13:03:59;;;;;;;7.50;3.25;;;7.80;99.90;;;;;;4923627;28;89815;-39